Time;durP1;ratioP1;P1;durP2;ratioP2;P2;SDS_P1;SDS_P2;PMS_P1;PMS_P2;Temp;Humidity;BMP_temperature;BMP_pressure;BME280_temperature;BME280_humidity;BME280_pressure;Samples;Min_cycle;Max_cycle;Signal;HPM_P1;HPM_P2
2024/03/24 00:01:10;;;;;;;1.42;0.60;;;7.00;1.00;;;;;;4969704;28;20089;-80
2024/03/24 00:03:38;;;;;;;1.65;0.60;;;7.00;1.00;;;;;;5001705;28;20046;-80
2024/03/24 00:06:05;;;;;;;0.63;0.55;;;7.00;1.00;;;;;;4952582;28;20552;-80
2024/03/24 00:08:31;;;;;;;0.88;0.60;;;6.90;1.00;;;;;;4969770;28;20100;-80
2024/03/24 00:10:57;;;;;;;0.68;0.40;;;7.00;1.00;;;;;;4969416;28;20065;-80
2024/03/24 00:13:23;;;;;;;2.67;0.80;;;6.90;1.00;;;;;;4953531;28;20477;-80
2024/03/24 00:15:49;;;;;;;2.65;0.80;;;6.90;1.00;;;;;;4950071;28;20051;-80
2024/03/24 00:18:15;;;;;;;1.88;0.75;;;6.90;1.00;;;;;;4966490;28;20383;-80
2024/03/24 00:20:41;;;;;;;2.78;1.05;;;6.80;1.00;;;;;;4949475;28;20584;-80
2024/03/24 00:23:09;;;;;;;1.17;0.43;;;6.80;1.00;;;;;;4964218;28;20151;-80
2024/03/24 00:25:35;;;;;;;1.17;0.63;;;6.80;1.00;;;;;;4963481;28;20775;-80
2024/03/24 00:28:01;;;;;;;2.00;1.00;;;6.80;1.00;;;;;;4934021;28;20062;-80
2024/03/24 00:30:27;;;;;;;1.70;0.85;;;6.80;1.00;;;;;;4949315;28;20062;-80
2024/03/24 00:32:53;;;;;;;1.38;0.63;;;6.80;1.00;;;;;;4949065;28;20074;-80
2024/03/24 00:35:19;;;;;;;1.02;0.60;;;6.80;1.00;;;;;;4947884;28;20046;-80
2024/03/24 00:37:47;;;;;;;2.03;0.90;;;6.90;1.00;;;;;;4949779;28;20077;-80
2024/03/24 00:40:13;;;;;;;1.50;0.60;;;6.90;1.00;;;;;;4965145;28;20057;-80
2024/03/24 00:42:39;;;;;;;1.80;0.73;;;6.90;1.00;;;;;;4933764;28;20061;-80
2024/03/24 00:45:07;;;;;;;1.58;0.60;;;7.00;1.00;;;;;;4948637;28;20061;-80
2024/03/24 00:47:34;;;;;;;1.92;0.80;;;6.90;1.00;;;;;;4950093;28;20514;-80
2024/03/24 00:49:59;;;;;;;2.58;1.00;;;6.90;1.00;;;;;;4948564;28;20065;-80
2024/03/24 00:52:25;;;;;;;2.97;0.70;;;6.90;1.00;;;;;;4949721;28;20127;-80
2024/03/24 00:54:51;;;;;;;2.08;1.02;;;6.80;1.00;;;;;;4965827;28;20162;-80
2024/03/24 00:57:17;;;;;;;2.80;1.25;;;6.80;1.00;;;;;;4981884;28;20062;-80
2024/03/24 00:59:43;;;;;;;1.42;0.80;;;6.70;1.00;;;;;;4949577;28;20186;-80
2024/03/24 01:02:09;;;;;;;1.38;0.73;;;6.70;1.00;;;;;;4965634;28;20437;-79
2024/03/24 01:04:35;;;;;;;1.90;0.80;;;6.60;1.00;;;;;;4965020;28;20085;-80
2024/03/24 01:07:00;;;;;;;2.95;1.05;;;6.60;1.00;;;;;;4980710;28;20069;-80
2024/03/24 01:09:27;;;;;;;1.42;0.60;;;6.60;1.00;;;;;;4949413;28;20054;-80
2024/03/24 01:11:53;;;;;;;1.63;0.60;;;6.50;1.00;;;;;;4949514;28;20057;-80
2024/03/24 01:14:19;;;;;;;3.05;1.00;;;6.50;1.00;;;;;;4949398;28;20054;-80
2024/03/24 01:16:45;;;;;;;3.63;0.90;;;6.50;1.00;;;;;;4965130;28;20634;-80
2024/03/24 01:19:11;;;;;;;2.33;1.05;;;6.40;1.00;;;;;;4933122;28;20054;-80
2024/03/24 01:21:37;;;;;;;1.20;0.70;;;6.40;1.00;;;;;;4965277;28;20186;-80
2024/03/24 01:24:03;;;;;;;2.22;0.80;;;6.40;1.00;;;;;;4950366;28;20061;-80
2024/03/24 01:26:29;;;;;;;2.00;0.90;;;6.40;1.00;;;;;;4949990;28;20466;-81
2024/03/24 01:28:55;;;;;;;2.80;0.90;;;6.40;1.00;;;;;;4950690;28;20557;-80
2024/03/24 01:31:21;;;;;;;1.83;0.82;;;6.30;1.00;;;;;;4949242;28;20065;-80
2024/03/24 01:33:47;;;;;;;1.80;0.77;;;6.40;1.00;;;;;;4948852;28;20094;-81
2024/03/24 01:36:12;;;;;;;1.35;0.70;;;6.30;1.00;;;;;;4954424;28;20085;-81
2024/03/24 01:38:39;;;;;;;1.63;0.70;;;6.30;1.00;;;;;;4964669;28;20054;-80
2024/03/24 01:41:05;;;;;;;1.58;0.90;;;6.30;1.00;;;;;;4965327;28;20134;-80
2024/03/24 01:43:31;;;;;;;1.98;0.68;;;6.30;1.00;;;;;;4948687;28;20054;-80
2024/03/24 01:45:57;;;;;;;3.35;0.80;;;6.30;1.00;;;;;;4971185;28;20570;-80
2024/03/24 01:48:23;;;;;;;4.35;0.95;;;6.30;1.00;;;;;;4968137;28;20050;-80
2024/03/24 01:50:49;;;;;;;4.75;1.17;;;6.30;1.00;;;;;;4951227;28;20061;-80
2024/03/24 01:53:14;;;;;;;1.95;0.60;;;6.30;1.00;;;;;;4952054;28;20787;-80
2024/03/24 01:55:40;;;;;;;4.82;1.75;;;6.30;1.00;;;;;;4967738;28;20493;-80
2024/03/24 01:58:06;;;;;;;1.80;0.75;;;6.30;1.00;;;;;;4968288;28;20057;-80
2024/03/24 02:00:32;;;;;;;2.47;1.30;;;6.30;1.00;;;;;;4967250;28;20111;-79
2024/03/24 02:02:59;;;;;;;1.75;0.80;;;6.30;1.00;;;;;;4951976;28;20081;-80
2024/03/24 02:05:26;;;;;;;1.23;0.60;;;6.40;1.00;;;;;;4982158;28;20641;-79
2024/03/24 02:07:52;;;;;;;1.48;0.60;;;6.40;1.00;;;;;;4951389;28;20054;-80
2024/03/24 02:10:18;;;;;;;1.15;0.45;;;6.40;1.00;;;;;;4967190;28;20061;-80
2024/03/24 02:12:44;;;;;;;1.85;1.10;;;6.40;1.00;;;;;;4951997;28;20053;-80
2024/03/24 02:15:14;;;;;;;1.40;0.70;;;6.40;1.00;;;;;;4967783;28;20058;-81
2024/03/24 02:17:40;;;;;;;1.02;0.50;;;6.40;1.00;;;;;;4951741;28;20058;-82
2024/03/24 02:20:08;;;;;;;1.83;0.65;;;6.30;1.00;;;;;;4945682;28;20058;-81
2024/03/24 02:22:38;;;;;;;1.98;0.73;;;6.30;1.00;;;;;;4948806;28;20065;-81
2024/03/24 02:25:04;;;;;;;1.33;0.60;;;6.30;1.00;;;;;;4965484;28;20067;-81
2024/03/24 02:27:31;;;;;;;2.55;1.02;;;6.40;1.00;;;;;;4979252;28;20482;-81
2024/03/24 02:29:57;;;;;;;2.08;0.88;;;6.40;1.00;;;;;;4948596;28;20062;-82
2024/03/24 02:32:25;;;;;;;2.55;1.27;;;6.40;1.00;;;;;;4964051;28;20046;-81
2024/03/24 02:34:52;;;;;;;0.98;0.60;;;6.40;1.00;;;;;;4970588;28;20050;-82
2024/03/24 02:37:18;;;;;;;2.42;1.20;;;6.40;1.00;;;;;;4971364;28;20575;-82
2024/03/24 02:39:44;;;;;;;1.20;0.80;;;6.40;1.00;;;;;;4987313;28;20069;-82
2024/03/24 02:42:10;;;;;;;2.10;1.00;;;6.40;1.00;;;;;;4954376;28;20070;-81
2024/03/24 02:44:37;;;;;;;2.47;1.35;;;6.40;1.00;;;;;;4981344;28;20061;-82
2024/03/24 02:47:03;;;;;;;4.20;0.90;;;6.40;1.00;;;;;;4986925;28;20046;-82
2024/03/24 02:49:29;;;;;;;1.75;0.82;;;6.40;1.00;;;;;;4986890;28;20403;-81
2024/03/24 02:51:54;;;;;;;2.25;0.88;;;6.40;1.00;;;;;;4970148;28;20057;-82
2024/03/24 02:54:20;;;;;;;2.60;0.93;;;6.40;1.00;;;;;;4975097;28;20511;-81
2024/03/24 02:56:46;;;;;;;3.42;1.00;;;6.40;1.00;;;;;;4983264;28;20093;-81
2024/03/24 02:59:12;;;;;;;1.90;0.63;;;6.40;1.00;;;;;;4967909;28;20051;-82
2024/03/24 03:01:38;;;;;;;2.50;1.23;;;6.50;1.00;;;;;;4978563;28;20053;-82
2024/03/24 03:04:04;;;;;;;2.53;1.50;;;6.50;1.00;;;;;;4970332;28;20053;-82
2024/03/24 03:06:30;;;;;;;2.28;0.82;;;6.50;1.00;;;;;;5002766;28;20062;-82
2024/03/24 03:08:56;;;;;;;2.28;0.88;;;6.50;1.00;;;;;;4986700;28;20547;-81
2024/03/24 03:11:22;;;;;;;1.90;0.98;;;6.50;1.00;;;;;;4970463;28;20093;-81
2024/03/24 03:13:48;;;;;;;1.70;1.00;;;6.50;1.00;;;;;;4980322;28;20063;-82
2024/03/24 03:16:13;;;;;;;2.08;0.80;;;6.60;1.00;;;;;;4967357;28;20146;-81
2024/03/24 03:18:39;;;;;;;3.15;0.88;;;6.60;1.00;;;;;;4967523;28;20120;-82
2024/03/24 03:21:05;;;;;;;0.98;0.60;;;6.60;1.00;;;;;;4969740;28;20054;-82
2024/03/24 03:23:31;;;;;;;1.85;0.70;;;6.60;1.00;;;;;;4954792;28;20141;-81
2024/03/24 03:25:57;;;;;;;2.42;1.15;;;6.60;1.00;;;;;;4970906;28;20061;-82
2024/03/24 03:28:23;;;;;;;1.98;1.13;;;6.60;1.00;;;;;;4948168;28;20068;-82
2024/03/24 03:30:49;;;;;;;1.20;0.65;;;6.60;1.00;;;;;;4990839;28;20050;-82
2024/03/24 03:33:16;;;;;;;4.47;1.30;;;6.60;1.00;;;;;;4988027;28;20053;-81
2024/03/24 03:35:41;;;;;;;2.35;1.23;;;6.70;1.00;;;;;;4970308;28;20054;-82
2024/03/24 03:38:07;;;;;;;2.00;0.90;;;6.70;1.00;;;;;;4970694;28;20064;-82
2024/03/24 03:40:34;;;;;;;2.60;1.00;;;6.60;1.00;;;;;;4986696;28;20453;-80
2024/03/24 03:43:00;;;;;;;2.88;1.10;;;6.60;5.50;;;;;;4970556;28;20069;-81
2024/03/24 03:45:26;;;;;;;2.47;0.90;;;6.50;19.30;;;;;;4970402;28;20050;-81
2024/03/24 03:47:53;;;;;;;1.15;0.77;;;6.50;50.50;;;;;;4971208;28;20187;-81
2024/03/24 03:50:20;;;;;;;1.63;0.80;;;6.40;91.50;;;;;;4970551;28;20053;-82
2024/03/24 03:52:47;;;;;;;0.98;0.50;;;6.20;99.90;;;;;;4970599;28;20054;-82
2024/03/24 03:55:17;;;;;;;1.15;0.60;;;6.20;99.90;;;;;;4968142;28;20524;-82
2024/03/24 03:57:43;;;;;;;1.05;0.57;;;6.20;99.90;;;;;;4954453;28;20054;-82
2024/03/24 04:00:12;;;;;;;1.25;0.65;;;6.10;99.90;;;;;;4954372;28;20128;-82
2024/03/24 04:02:44;;;;;;;0.93;0.60;;;6.10;99.90;;;;;;4970891;28;20061;-82
2024/03/24 04:05:10;;;;;;;1.30;0.50;;;6.00;99.90;;;;;;4971910;28;20058;-82
2024/03/24 04:07:36;;;;;;;1.23;0.68;;;6.00;99.90;;;;;;4954505;28;20058;-81
2024/03/24 04:10:05;;;;;;;0.85;0.65;;;5.90;99.90;;;;;;4954008;28;20054;-82
2024/03/24 04:12:32;;;;;;;1.33;0.63;;;5.90;99.90;;;;;;4970590;28;20050;-82
2024/03/24 04:15:01;;;;;;;1.10;0.63;;;5.80;99.90;;;;;;4953367;28;20498;-82
2024/03/24 04:17:30;;;;;;;1.60;0.63;;;5.80;99.90;;;;;;4970353;28;20047;-82
2024/03/24 04:19:58;;;;;;;0.98;0.70;;;5.80;99.90;;;;;;4936988;28;20420;-81
2024/03/24 04:22:24;;;;;;;1.00;0.65;;;5.80;99.90;;;;;;4938446;28;20465;-81
2024/03/24 04:24:50;;;;;;;1.55;0.85;;;5.80;99.90;;;;;;4954014;28;20086;-81
2024/03/24 04:27:16;;;;;;;2.63;0.95;;;5.70;99.90;;;;;;4970439;28;20054;-81
2024/03/24 04:29:45;;;;;;;2.13;0.80;;;5.80;99.90;;;;;;4953919;28;20054;-81
2024/03/24 04:32:11;;;;;;;1.38;0.77;;;5.70;99.90;;;;;;4987427;28;20492;-81
2024/03/24 04:34:38;;;;;;;1.77;0.73;;;5.70;99.90;;;;;;4978007;28;20073;-82
2024/03/24 04:37:05;;;;;;;1.85;1.02;;;5.80;99.90;;;;;;4937247;28;20469;-81
2024/03/24 04:39:32;;;;;;;2.95;0.90;;;5.80;99.90;;;;;;4969816;28;20055;-82
2024/03/24 04:41:58;;;;;;;2.95;1.10;;;5.80;99.90;;;;;;4954021;28;20057;-82
2024/03/24 04:44:25;;;;;;;2.28;1.00;;;5.90;99.90;;;;;;4969657;28;20058;-82
2024/03/24 04:46:53;;;;;;;2.65;1.05;;;6.00;99.90;;;;;;4985865;28;20425;-81
2024/03/24 04:49:19;;;;;;;1.35;0.77;;;6.00;99.90;;;;;;4968915;28;20046;-81
2024/03/24 04:51:45;;;;;;;1.85;0.60;;;6.00;99.90;;;;;;4936548;28;20096;-81
2024/03/24 04:54:10;;;;;;;3.53;1.10;;;6.00;99.90;;;;;;4953321;28;20062;-81
2024/03/24 04:56:36;;;;;;;1.25;0.70;;;6.10;99.90;;;;;;4969112;28;20605;-81
2024/03/24 04:59:03;;;;;;;1.60;0.85;;;6.10;99.90;;;;;;4969216;28;20054;-81
2024/03/24 05:01:29;;;;;;;2.10;1.00;;;6.10;99.90;;;;;;4953273;28;20177;-81
2024/03/24 05:03:55;;;;;;;1.42;0.63;;;6.20;99.90;;;;;;4968837;28;20133;-81
2024/03/24 05:06:21;;;;;;;1.35;0.73;;;6.20;99.90;;;;;;4952276;28;20090;-81
2024/03/24 05:08:46;;;;;;;2.97;0.85;;;6.20;99.90;;;;;;4969184;28;20058;-82
2024/03/24 05:11:12;;;;;;;1.23;0.65;;;6.20;99.90;;;;;;4937553;28;20046;-81
2024/03/24 05:13:41;;;;;;;1.77;0.90;;;6.10;99.90;;;;;;4936355;28;21628;-81
2024/03/24 05:16:07;;;;;;;2.05;0.80;;;6.10;99.90;;;;;;4965449;28;20072;-82
2024/03/24 05:18:36;;;;;;;1.85;1.20;;;6.20;99.90;;;;;;4960378;28;20100;-82
2024/03/24 05:21:04;;;;;;;2.53;0.98;;;6.20;99.90;;;;;;4975543;28;20646;-81
2024/03/24 05:23:30;;;;;;;2.03;0.90;;;6.10;99.90;;;;;;4975236;28;20481;-81
2024/03/24 05:25:56;;;;;;;2.38;1.25;;;6.10;99.90;;;;;;4952390;28;20100;-82
2024/03/24 05:28:22;;;;;;;3.45;1.95;;;6.10;99.90;;;;;;4956454;28;20046;-81
2024/03/24 05:30:51;;;;;;;1.98;0.70;;;6.10;99.90;;;;;;4968595;28;20046;-81
2024/03/24 05:33:18;;;;;;;2.72;0.93;;;6.10;99.90;;;;;;4949013;28;20053;-81
2024/03/24 05:35:44;;;;;;;1.95;0.75;;;6.10;99.90;;;;;;4961728;28;20046;-81
2024/03/24 05:38:11;;;;;;;2.42;0.85;;;6.10;99.90;;;;;;4974825;28;20084;-82
2024/03/24 05:40:36;;;;;;;2.30;1.10;;;6.10;99.90;;;;;;4961042;28;20054;-81
2024/03/24 05:43:02;;;;;;;1.90;0.95;;;6.10;99.90;;;;;;4974586;28;20058;-82
2024/03/24 05:45:28;;;;;;;5.30;1.30;;;6.10;99.90;;;;;;4980197;28;20061;-81
2024/03/24 05:47:54;;;;;;;1.70;0.88;;;6.10;99.90;;;;;;4974141;28;20069;-81
2024/03/24 05:50:21;;;;;;;2.78;1.20;;;6.10;99.90;;;;;;4960822;28;20100;-82
2024/03/24 05:52:46;;;;;;;2.83;1.17;;;6.10;99.90;;;;;;4973508;28;20050;-81
2024/03/24 05:55:15;;;;;;;2.53;0.90;;;6.10;99.90;;;;;;4952315;28;20050;-81
2024/03/24 05:57:41;;;;;;;1.85;1.08;;;6.10;99.90;;;;;;4952916;28;20058;-81
2024/03/24 06:00:09;;;;;;;2.50;0.90;;;6.00;99.90;;;;;;4967887;28;20101;-82
2024/03/24 06:02:34;;;;;;;2.33;0.85;;;6.00;99.90;;;;;;4967406;28;20069;-81
2024/03/24 06:05:00;;;;;;;2.65;0.90;;;6.10;99.90;;;;;;4970573;28;20523;-82
2024/03/24 06:07:26;;;;;;;1.38;0.80;;;6.10;99.90;;;;;;4950494;28;20062;-81
2024/03/24 06:09:52;;;;;;;1.83;0.85;;;6.10;99.90;;;;;;4949007;28;20058;-82
2024/03/24 06:12:19;;;;;;;2.30;1.00;;;6.20;99.90;;;;;;4954345;28;20088;-81
2024/03/24 06:14:45;;;;;;;2.15;0.85;;;6.20;99.90;;;;;;4983857;28;20050;-81
2024/03/24 06:17:11;;;;;;;1.95;0.80;;;6.30;99.90;;;;;;4968745;28;20068;-81
2024/03/24 06:19:37;;;;;;;2.47;1.13;;;6.40;99.90;;;;;;4951505;28;20089;-80
2024/03/24 06:22:03;;;;;;;2.05;1.10;;;6.40;99.90;;;;;;4964034;28;20082;-78
2024/03/24 06:24:29;;;;;;;2.13;1.00;;;6.40;99.90;;;;;;4961484;28;20837;-79
2024/03/24 06:26:55;;;;;;;1.40;0.80;;;6.50;99.90;;;;;;4984545;28;20093;-78
2024/03/24 06:29:21;;;;;;;1.60;1.23;;;6.50;99.90;;;;;;4952515;28;20058;-78
2024/03/24 06:31:47;;;;;;;2.25;0.82;;;6.50;99.90;;;;;;4983357;28;20058;-78
2024/03/24 06:34:14;;;;;;;2.45;1.10;;;6.50;99.50;;;;;;4964147;28;20112;-78
2024/03/24 06:36:41;;;;;;;4.05;1.27;;;6.50;99.90;;;;;;4951441;28;20493;-77
2024/03/24 06:39:08;;;;;;;1.15;0.82;;;6.50;99.90;;;;;;4939253;28;20054;-78
2024/03/24 06:41:41;;;;;;;2.28;0.90;;;6.40;99.40;;;;;;4969845;28;20050;-78
2024/03/24 06:44:16;;;;;;;2.25;1.10;;;6.40;99.30;;;;;;4965862;28;20054;-79
2024/03/24 06:46:45;;;;;;;2.50;0.82;;;6.40;99.90;;;;;;4935267;28;20116;-79
2024/03/24 06:49:11;;;;;;;1.23;0.85;;;6.50;99.90;;;;;;4967434;28;20054;-78
2024/03/24 06:51:37;;;;;;;0.75;0.60;;;6.50;99.90;;;;;;4962188;28;20042;-78
2024/03/24 06:54:03;;;;;;;1.83;1.08;;;6.50;99.00;;;;;;4955030;28;20605;-78
2024/03/24 06:56:30;;;;;;;1.73;0.60;;;6.50;98.30;;;;;;4944834;28;20049;-78
2024/03/24 06:58:56;;;;;;;1.40;0.70;;;6.50;99.90;;;;;;4949869;28;20862;-79
2024/03/24 07:01:22;;;;;;;0.95;0.60;;;6.60;97.50;;;;;;4967917;28;20050;-79
2024/03/24 07:03:48;;;;;;;1.33;0.95;;;6.60;93.90;;;;;;4985494;28;20053;-78
2024/03/24 07:06:14;;;;;;;1.70;1.17;;;6.60;92.40;;;;;;4978489;28;20080;-79
2024/03/24 07:08:43;;;;;;;1.40;0.70;;;6.60;92.20;;;;;;4987162;28;20062;-77
2024/03/24 07:11:09;;;;;;;1.10;0.60;;;6.70;91.10;;;;;;4971215;28;20113;-78
2024/03/24 07:13:35;;;;;;;1.67;0.75;;;6.70;90.60;;;;;;4960966;28;20061;-78
2024/03/24 07:16:00;;;;;;;0.70;0.60;;;6.80;86.20;;;;;;4957912;28;20571;-78
2024/03/24 07:18:26;;;;;;;0.70;0.50;;;6.90;83.40;;;;;;4973853;28;20050;-78
2024/03/24 07:20:59;;;;;;;0.40;0.35;;;6.90;80.10;;;;;;4989254;28;20069;-78
2024/03/24 07:23:26;;;;;;;0.47;0.40;;;7.00;77.80;;;;;;4957763;28;20050;-77
2024/03/24 07:25:52;;;;;;;0.82;0.52;;;7.10;63.10;;;;;;4990335;28;20056;-77
2024/03/24 07:28:18;;;;;;;1.45;0.55;;;7.10;59.80;;;;;;4975208;28;20054;-83
2024/03/24 07:30:44;;;;;;;0.77;0.65;;;7.20;55.80;;;;;;4958472;28;20061;-80
2024/03/24 07:33:16;;;;;;;0.50;0.50;;;7.20;54.70;;;;;;4957742;28;20412;-79
2024/03/24 07:35:43;;;;;;;0.90;0.50;;;7.30;47.90;;;;;;4984736;28;20050;-80
2024/03/24 07:38:11;;;;;;;1.13;0.63;;;7.40;42.60;;;;;;4962245;28;20065;-81
2024/03/24 07:40:38;;;;;;;0.65;0.50;;;7.50;40.80;;;;;;4944854;28;20047;-80
2024/03/24 07:43:04;;;;;;;0.70;0.57;;;7.50;33.70;;;;;;4959975;28;20053;-81
2024/03/24 07:45:31;;;;;;;0.57;0.40;;;7.60;29.10;;;;;;4968320;28;20050;-80
2024/03/24 07:47:57;;;;;;;0.65;0.40;;;7.70;26.40;;;;;;4962145;28;20513;-80
2024/03/24 07:50:23;;;;;;;0.90;0.50;;;7.80;23.40;;;;;;4967138;28;20057;-81
2024/03/24 07:52:49;;;;;;;1.95;0.80;;;7.80;19.90;;;;;;4984029;28;20053;-80
2024/03/24 07:55:15;;;;;;;1.67;0.73;;;7.90;19.30;;;;;;4979592;28;20046;-79
2024/03/24 07:57:42;;;;;;;0.82;0.63;;;7.90;16.70;;;;;;4969574;28;20061;-79
2024/03/24 08:00:10;;;;;;;1.48;0.70;;;8.00;18.40;;;;;;4971831;28;20445;-82
2024/03/24 08:02:36;;;;;;;1.63;0.88;;;8.10;15.60;;;;;;4968857;28;21266;-80
2024/03/24 08:05:02;;;;;;;2.40;1.05;;;8.10;10.20;;;;;;4949444;28;20450;-79
2024/03/24 08:07:28;;;;;;;0.90;0.60;;;8.20;8.50;;;;;;4967258;28;20046;-81
2024/03/24 08:09:54;;;;;;;2.00;1.10;;;8.20;7.80;;;;;;4955080;28;20056;-80
2024/03/24 08:12:20;;;;;;;2.70;0.80;;;8.30;8.50;;;;;;4973219;28;20064;-81
2024/03/24 08:14:46;;;;;;;1.67;0.70;;;8.40;17.20;;;;;;4954553;28;20057;-80
2024/03/24 08:17:12;;;;;;;1.60;0.60;;;8.40;7.40;;;;;;4953806;28;20066;-81
2024/03/24 08:19:38;;;;;;;1.13;0.70;;;8.40;3.80;;;;;;4969382;28;20120;-80
2024/03/24 08:22:04;;;;;;;1.85;0.93;;;8.40;2.10;;;;;;4952425;28;20058;-80
2024/03/24 08:24:31;;;;;;;1.15;0.70;;;8.40;1.80;;;;;;4978806;28;20062;-80
2024/03/24 08:26:57;;;;;;;1.70;0.75;;;8.40;1.00;;;;;;4972521;28;20046;-81
2024/03/24 08:29:22;;;;;;;1.02;0.70;;;8.40;1.00;;;;;;4957228;28;20053;-80
2024/03/24 08:31:48;;;;;;;1.83;0.70;;;8.40;1.00;;;;;;4988757;28;20145;-80
2024/03/24 08:34:14;;;;;;;0.93;0.70;;;8.40;1.00;;;;;;4998593;28;20573;-79
2024/03/24 08:36:40;;;;;;;1.63;0.93;;;8.40;1.00;;;;;;4987305;28;20119;-80
2024/03/24 08:39:07;;;;;;;2.83;0.93;;;8.40;1.00;;;;;;4968820;28;20050;-80
2024/03/24 08:41:33;;;;;;;1.05;0.80;;;8.40;1.00;;;;;;4951533;28;20125;-79
2024/03/24 08:43:59;;;;;;;1.63;1.00;;;8.50;1.00;;;;;;4961468;28;20133;-80
2024/03/24 08:46:29;;;;;;;1.75;0.95;;;8.50;1.00;;;;;;4967024;28;20125;-80
2024/03/24 08:48:55;;;;;;;1.88;0.82;;;8.60;1.00;;;;;;4981337;28;20058;-80
2024/03/24 08:51:21;;;;;;;1.52;0.68;;;8.60;1.00;;;;;;4965127;28;20058;-80
2024/03/24 08:53:47;;;;;;;2.83;0.80;;;8.70;1.00;;;;;;4961649;28;20218;-80
2024/03/24 08:56:13;;;;;;;2.92;1.05;;;8.70;1.00;;;;;;4945747;28;20065;-81
2024/03/24 08:58:39;;;;;;;1.73;0.77;;;8.70;1.00;;;;;;4966918;28;20050;-82
2024/03/24 09:01:06;;;;;;;1.40;0.85;;;8.70;1.00;;;;;;4966451;28;20061;-81
2024/03/24 09:03:32;;;;;;;2.58;1.00;;;8.70;1.00;;;;;;4972643;28;20054;-81
2024/03/24 09:05:58;;;;;;;3.40;1.02;;;8.70;1.00;;;;;;4930516;28;20141;-81
2024/03/24 09:08:25;;;;;;;1.70;0.80;;;8.70;1.00;;;;;;4958808;28;20046;-79
2024/03/24 09:10:52;;;;;;;1.83;0.85;;;8.80;1.00;;;;;;4965525;28;20623;-81
2024/03/24 09:13:18;;;;;;;2.13;0.80;;;8.90;1.00;;;;;;4974434;28;20057;-81
2024/03/24 09:15:44;;;;;;;1.65;0.77;;;9.10;1.00;;;;;;4975860;28;20050;-78
2024/03/24 09:18:10;;;;;;;1.67;1.08;;;9.10;1.00;;;;;;4965629;28;20049;-80
2024/03/24 09:20:36;;;;;;;2.50;0.80;;;9.20;1.00;;;;;;4965003;28;20057;-80
2024/03/24 09:23:03;;;;;;;1.60;0.82;;;9.30;1.00;;;;;;4962580;28;20061;-79
2024/03/24 09:25:31;;;;;;;2.83;1.08;;;9.40;1.00;;;;;;4953580;28;20068;-79
2024/03/24 09:27:57;;;;;;;2.33;0.77;;;9.50;1.00;;;;;;4965394;28;20488;-79
2024/03/24 09:30:24;;;;;;;1.77;1.00;;;9.70;1.00;;;;;;4965928;28;20058;-80
2024/03/24 09:32:51;;;;;;;2.30;0.65;;;9.70;1.00;;;;;;4962716;28;20050;-80
2024/03/24 09:35:18;;;;;;;1.05;0.50;;;9.70;1.00;;;;;;4962323;28;20065;-79
2024/03/24 09:37:44;;;;;;;1.38;0.80;;;9.60;1.00;;;;;;4966749;28;20062;-80
2024/03/24 09:40:11;;;;;;;1.90;0.93;;;9.70;1.00;;;;;;4965439;28;20049;-80
2024/03/24 09:42:37;;;;;;;2.72;0.90;;;9.80;1.00;;;;;;4965271;28;20054;-80
2024/03/24 09:45:03;;;;;;;2.22;0.90;;;10.10;1.00;;;;;;4954821;28;20113;-81
2024/03/24 09:47:31;;;;;;;1.50;0.80;;;10.20;1.00;;;;;;4964631;28;20057;-80
2024/03/24 09:49:57;;;;;;;2.53;1.00;;;10.30;1.00;;;;;;4963750;28;20129;-81
2024/03/24 09:52:23;;;;;;;1.70;0.65;;;10.40;1.00;;;;;;4964537;28;20053;-81
2024/03/24 09:54:49;;;;;;;1.63;1.02;;;10.50;1.00;;;;;;4954240;28;20069;-81
2024/03/24 09:57:16;;;;;;;1.95;0.75;;;10.50;1.00;;;;;;4957137;28;20739;-82
2024/03/24 09:59:42;;;;;;;4.22;1.20;;;10.50;1.00;;;;;;4982500;28;20433;-82
2024/03/24 10:02:09;;;;;;;2.45;0.80;;;10.50;1.00;;;;;;4966210;28;20053;-82
2024/03/24 10:04:35;;;;;;;1.98;1.15;;;10.60;1.00;;;;;;4948162;28;20064;-82
2024/03/24 10:07:02;;;;;;;2.85;1.02;;;10.60;1.00;;;;;;4947001;28;20046;-82
2024/03/24 10:09:29;;;;;;;4.00;1.00;;;10.60;1.00;;;;;;4979973;28;20503;-81
2024/03/24 10:11:55;;;;;;;2.63;0.98;;;10.60;1.00;;;;;;4943273;28;20489;-82
2024/03/24 10:14:25;;;;;;;2.40;0.95;;;10.80;1.00;;;;;;4955730;28;20150;-81
2024/03/24 10:16:52;;;;;;;0.95;0.50;;;10.90;1.00;;;;;;4997720;28;20061;-82
2024/03/24 10:19:17;;;;;;;1.67;0.90;;;11.00;1.00;;;;;;4964644;28;20073;-80
2024/03/24 10:21:44;;;;;;;2.10;0.70;;;11.20;1.00;;;;;;4964628;28;20539;-81
2024/03/24 10:24:09;;;;;;;2.33;0.90;;;11.20;1.00;;;;;;4969468;28;20069;-81
2024/03/24 10:26:36;;;;;;;0.75;0.50;;;11.40;1.00;;;;;;4964742;28;20058;-81
2024/03/24 10:29:05;;;;;;;1.30;0.60;;;11.40;1.00;;;;;;4980579;28;20123;-81
2024/03/24 10:31:37;;;;;;;0.70;0.50;;;11.50;1.00;;;;;;4942037;28;20065;-81
2024/03/24 10:34:04;;;;;;;1.70;0.70;;;11.50;1.00;;;;;;4979655;28;20579;-82
2024/03/24 10:36:31;;;;;;;4.22;0.98;;;11.40;1.00;;;;;;4964548;28;20058;-81
2024/03/24 10:39:04;;;;;;;3.03;1.25;;;11.20;1.00;;;;;;4945750;28;20065;-82
2024/03/24 10:41:30;;;;;;;5.45;1.05;;;11.20;1.00;;;;;;4976997;28;20139;-81
2024/03/24 10:43:56;;;;;;;1.48;0.73;;;11.40;1.00;;;;;;4964230;28;20061;-83
2024/03/24 10:46:22;;;;;;;1.73;0.90;;;11.50;1.00;;;;;;4965576;28;20054;-75
2024/03/24 10:48:48;;;;;;;0.90;0.70;;;11.50;1.00;;;;;;4964107;28;20057;-75
2024/03/24 10:51:14;;;;;;;2.35;1.15;;;11.60;1.00;;;;;;4963477;28;20058;-75
2024/03/24 10:53:40;;;;;;;1.45;0.50;;;11.50;1.00;;;;;;4962941;28;20196;-76
2024/03/24 10:56:06;;;;;;;1.27;0.60;;;11.40;1.00;;;;;;4963345;28;20052;-76
2024/03/24 10:58:32;;;;;;;2.45;1.35;;;11.40;1.00;;;;;;4965284;28;20120;-76
2024/03/24 11:00:58;;;;;;;1.88;1.00;;;11.40;1.00;;;;;;4965351;28;20491;-75
2024/03/24 11:03:24;;;;;;;1.77;0.90;;;11.50;1.00;;;;;;4962434;28;20057;-76
2024/03/24 11:05:51;;;;;;;3.05;1.00;;;11.60;1.00;;;;;;4969903;28;20587;-76
2024/03/24 11:08:18;;;;;;;1.50;0.60;;;11.60;1.00;;;;;;4980814;28;20046;-75
2024/03/24 11:10:55;;;;;;;1.92;0.80;;;11.60;1.00;;;;;;4980501;28;20060;-76
2024/03/24 11:13:27;;;;;;;2.15;0.95;;;11.50;1.00;;;;;;4961938;28;20081;-76
2024/03/24 11:15:53;;;;;;;2.45;1.30;;;11.50;1.00;;;;;;4955802;28;20055;-76
2024/03/24 11:18:28;;;;;;;1.10;0.60;;;11.50;1.00;;;;;;4963455;28;20624;-78
2024/03/24 11:21:03;;;;;;;4.22;1.30;;;11.60;1.00;;;;;;4980478;28;20524;-78
2024/03/24 11:23:37;;;;;;;4.07;1.30;;;11.70;1.00;;;;;;4953250;28;20138;-78
2024/03/24 11:26:06;;;;;;;2.25;0.70;;;12.00;1.00;;;;;;4964609;28;20520;-78
2024/03/24 11:28:40;;;;;;;2.00;0.80;;;12.10;1.00;;;;;;4959316;28;20055;-78
2024/03/24 11:31:32;;;;;;;0.85;0.60;;;12.40;1.00;;;;;;4964685;28;20072;-78
2024/03/24 11:34:08;;;;;;;2.63;0.80;;;12.90;1.00;;;;;;4957227;28;20053;-78
2024/03/24 11:36:39;;;;;;;1.85;0.90;;;13.00;1.00;;;;;;4963885;28;20139;-78
2024/03/24 11:39:06;;;;;;;3.63;1.27;;;12.90;1.00;;;;;;4964215;28;20050;-78
2024/03/24 11:41:33;;;;;;;2.30;1.15;;;12.90;1.00;;;;;;4982495;28;20056;-78
2024/03/24 11:44:03;;;;;;;1.55;0.98;;;13.00;1.00;;;;;;4966453;28;20061;-78
2024/03/24 11:46:30;;;;;;;1.83;0.70;;;13.00;1.00;;;;;;4983918;28;20058;-78
2024/03/24 11:48:57;;;;;;;2.33;1.00;;;12.80;1.00;;;;;;4968072;28;20046;-76
2024/03/24 11:51:24;;;;;;;2.58;1.10;;;12.90;1.00;;;;;;4982733;28;20103;-77
2024/03/24 11:53:54;;;;;;;3.35;1.00;;;12.90;1.00;;;;;;4976515;28;20444;-77
2024/03/24 11:56:20;;;;;;;2.30;1.00;;;12.60;1.00;;;;;;4966009;28;20065;-77
2024/03/24 11:58:50;;;;;;;2.40;0.80;;;12.50;1.00;;;;;;4950723;28;20095;-77
2024/03/24 12:01:22;;;;;;;1.40;0.88;;;12.70;1.00;;;;;;4967754;28;20062;-77
2024/03/24 12:03:49;;;;;;;1.90;0.80;;;12.60;1.00;;;;;;4966018;28;20058;-78
2024/03/24 12:06:16;;;;;;;3.08;1.00;;;12.60;1.00;;;;;;4964942;28;20054;-77
2024/03/24 12:08:45;;;;;;;2.15;1.08;;;12.60;1.00;;;;;;4960835;28;20058;-78
2024/03/24 12:11:11;;;;;;;3.40;0.90;;;13.10;1.00;;;;;;4962280;28;20053;-78
2024/03/24 12:13:38;;;;;;;1.85;1.00;;;13.20;1.00;;;;;;4966625;28;20054;-78
2024/03/24 12:16:04;;;;;;;2.13;1.05;;;13.40;1.00;;;;;;4951742;28;20050;-78
2024/03/24 12:18:30;;;;;;;2.42;0.90;;;13.50;1.00;;;;;;4966643;28;20061;-74
2024/03/24 12:20:59;;;;;;;1.33;0.80;;;13.50;1.00;;;;;;4968198;28;20050;-75
2024/03/24 12:23:25;;;;;;;1.42;0.80;;;13.60;1.00;;;;;;4959619;28;20072;-75
2024/03/24 12:25:53;;;;;;;2.00;1.00;;;14.00;1.00;;;;;;4948174;28;20390;-75
2024/03/24 12:28:19;;;;;;;3.25;1.25;;;14.40;1.00;;;;;;4941912;28;20046;-75
2024/03/24 12:30:49;;;;;;;1.98;0.80;;;14.40;1.00;;;;;;4992449;28;20049;-75
2024/03/24 12:33:26;;;;;;;1.35;0.70;;;14.30;1.00;;;;;;4962818;28;20433;-75
2024/03/24 12:35:54;;;;;;;1.85;0.63;;;14.40;1.00;;;;;;4965069;28;20388;-75
2024/03/24 12:38:20;;;;;;;0.98;0.68;;;14.80;1.00;;;;;;4965421;28;20128;-74
2024/03/24 12:40:53;;;;;;;1.65;0.90;;;15.00;1.00;;;;;;4949375;28;20157;-76
2024/03/24 12:43:25;;;;;;;1.42;0.60;;;14.80;1.00;;;;;;4969556;28;20072;-75
2024/03/24 12:46:00;;;;;;;1.92;0.90;;;14.10;1.00;;;;;;4985153;28;20065;-76
2024/03/24 12:48:30;;;;;;;2.08;0.80;;;14.30;1.00;;;;;;5000748;28;20065;-75
2024/03/24 12:50:59;;;;;;;2.20;0.90;;;14.60;1.00;;;;;;4952135;28;20050;-75
2024/03/24 12:53:43;;;;;;;2.17;0.88;;;14.80;1.00;;;;;;4949260;28;20135;-76
2024/03/24 12:56:09;;;;;;;1.65;0.70;;;15.10;1.00;;;;;;4980570;28;20123;-76
2024/03/24 12:58:41;;;;;;;0.88;0.75;;;14.60;1.00;;;;;;4984916;28;20093;-75